sensor_id;sensor_type;location;lat;lon;timestamp;temperature;humidity
9820;DHT22;4949;48.482;9.206;2023-05-07T00:03:38;17.40;60.60
9820;DHT22;4949;48.482;9.206;2023-05-07T00:08:42;17.40;60.70
9820;DHT22;4949;48.482;9.206;2023-05-07T00:13:42;17.30;61.00
9820;DHT22;4949;48.482;9.206;2023-05-07T00:18:44;17.30;60.90
9820;DHT22;4949;48.482;9.206;2023-05-07T00:23:45;17.10;61.10
9820;DHT22;4949;48.482;9.206;2023-05-07T00:28:46;17.10;61.40
9820;DHT22;4949;48.482;9.206;2023-05-07T00:33:46;17.10;61.00
9820;DHT22;4949;48.482;9.206;2023-05-07T00:38:47;17.20;61.30
9820;DHT22;4949;48.482;9.206;2023-05-07T00:43:48;17.10;61.20
9820;DHT22;4949;48.482;9.206;2023-05-07T00:48:52;17.00;61.50
9820;DHT22;4949;48.482;9.206;2023-05-07T00:53:53;17.00;63.80
9820;DHT22;4949;48.482;9.206;2023-05-07T00:58:54;16.90;66.90
9820;DHT22;4949;48.482;9.206;2023-05-07T01:03:56;16.70;69.00
9820;DHT22;4949;48.482;9.206;2023-05-07T01:09:00;16.70;70.30
9820;DHT22;4949;48.482;9.206;2023-05-07T01:14:01;16.60;70.50
9820;DHT22;4949;48.482;9.206;2023-05-07T01:19:03;16.50;71.70
9820;DHT22;4949;48.482;9.206;2023-05-07T01:24:04;16.40;72.20
9820;DHT22;4949;48.482;9.206;2023-05-07T01:29:07;16.40;71.40
9820;DHT22;4949;48.482;9.206;2023-05-07T01:34:09;16.30;71.90
9820;DHT22;4949;48.482;9.206;2023-05-07T01:39:13;16.30;72.20
9820;DHT22;4949;48.482;9.206;2023-05-07T01:44:18;16.20;72.50
9820;DHT22;4949;48.482;9.206;2023-05-07T01:49:19;16.10;72.50
9820;DHT22;4949;48.482;9.206;2023-05-07T01:54:25;16.00;73.30
9820;DHT22;4949;48.482;9.206;2023-05-07T01:59:29;15.90;73.30
9820;DHT22;4949;48.482;9.206;2023-05-07T02:04:29;15.90;73.90
9820;DHT22;4949;48.482;9.206;2023-05-07T02:09:32;15.90;72.50
9820;DHT22;4949;48.482;9.206;2023-05-07T02:14:35;15.90;72.90
9820;DHT22;4949;48.482;9.206;2023-05-07T02:19:36;15.70;73.80
9820;DHT22;4949;48.482;9.206;2023-05-07T02:24:37;15.60;74.20
9820;DHT22;4949;48.482;9.206;2023-05-07T02:29:40;15.50;74.90
9820;DHT22;4949;48.482;9.206;2023-05-07T02:34:43;15.40;75.40
9820;DHT22;4949;48.482;9.206;2023-05-07T02:39:44;15.20;75.70
9820;DHT22;4949;48.482;9.206;2023-05-07T02:44:45;15.20;76.10
9820;DHT22;4949;48.482;9.206;2023-05-07T02:49:45;15.00;76.50
9820;DHT22;4949;48.482;9.206;2023-05-07T02:54:46;14.90;76.90
9820;DHT22;4949;48.482;9.206;2023-05-07T02:59:47;14.80;77.00
9820;DHT22;4949;48.482;9.206;2023-05-07T03:04:48;14.70;77.10
9820;DHT22;4949;48.482;9.206;2023-05-07T03:09:51;14.60;77.70
9820;DHT22;4949;48.482;9.206;2023-05-07T03:14:54;14.50;78.00
9820;DHT22;4949;48.482;9.206;2023-05-07T03:19:55;14.50;77.90
9820;DHT22;4949;48.482;9.206;2023-05-07T03:24:56;14.40;78.20
9820;DHT22;4949;48.482;9.206;2023-05-07T03:29:57;14.40;77.90
9820;DHT22;4949;48.482;9.206;2023-05-07T03:34:57;14.30;78.40
9820;DHT22;4949;48.482;9.206;2023-05-07T03:40:01;14.20;78.50
9820;DHT22;4949;48.482;9.206;2023-05-07T03:45:02;14.20;78.70
9820;DHT22;4949;48.482;9.206;2023-05-07T03:50:04;14.10;79.30
9820;DHT22;4949;48.482;9.206;2023-05-07T03:55:05;14.00;79.40
9820;DHT22;4949;48.482;9.206;2023-05-07T04:00:10;14.00;79.50
9820;DHT22;4949;48.482;9.206;2023-05-07T04:05:12;13.70;79.10
9820;DHT22;4949;48.482;9.206;2023-05-07T04:10:15;14.20;79.90
9820;DHT22;4949;48.482;9.206;2023-05-07T04:15:16;13.80;79.80
9820;DHT22;4949;48.482;9.206;2023-05-07T04:20:21;13.80;79.80
9820;DHT22;4949;48.482;9.206;2023-05-07T04:25:24;13.70;81.10
9820;DHT22;4949;48.482;9.206;2023-05-07T04:30:30;13.70;80.50
9820;DHT22;4949;48.482;9.206;2023-05-07T04:35:30;13.60;80.80
9820;DHT22;4949;48.482;9.206;2023-05-07T04:40:31;13.60;81.30
9820;DHT22;4949;48.482;9.206;2023-05-07T04:45:32;13.60;80.90
9820;DHT22;4949;48.482;9.206;2023-05-07T04:50:35;13.60;81.10
9820;DHT22;4949;48.482;9.206;2023-05-07T04:55:36;13.60;81.30
9820;DHT22;4949;48.482;9.206;2023-05-07T05:00:41;13.70;81.40
9820;DHT22;4949;48.482;9.206;2023-05-07T05:05:43;13.80;81.30
9820;DHT22;4949;48.482;9.206;2023-05-07T05:10:46;13.80;81.30
9820;DHT22;4949;48.482;9.206;2023-05-07T05:15:49;13.70;81.40
9820;DHT22;4949;48.482;9.206;2023-05-07T05:20:52;13.80;81.30
9820;DHT22;4949;48.482;9.206;2023-05-07T05:25:57;13.80;81.20
9820;DHT22;4949;48.482;9.206;2023-05-07T05:31:00;13.90;81.30
9820;DHT22;4949;48.482;9.206;2023-05-07T05:36:01;14.00;81.00
9820;DHT22;4949;48.482;9.206;2023-05-07T05:41:02;14.10;81.10
9820;DHT22;4949;48.482;9.206;2023-05-07T05:46:06;14.30;80.90
9820;DHT22;4949;48.482;9.206;2023-05-07T05:51:07;14.80;80.10
9820;DHT22;4949;48.482;9.206;2023-05-07T05:56:07;15.00;78.50
9820;DHT22;4949;48.482;9.206;2023-05-07T06:01:08;15.20;78.10
9820;DHT22;4949;48.482;9.206;2023-05-07T06:06:14;15.40;77.00
9820;DHT22;4949;48.482;9.206;2023-05-07T06:11:17;15.70;76.40
9820;DHT22;4949;48.482;9.206;2023-05-07T06:16:18;15.60;74.90
9820;DHT22;4949;48.482;9.206;2023-05-07T06:21:19;15.60;75.40
9820;DHT22;4949;48.482;9.206;2023-05-07T06:26:20;15.40;75.70
9820;DHT22;4949;48.482;9.206;2023-05-07T06:31:21;15.50;76.10
9820;DHT22;4949;48.482;9.206;2023-05-07T06:36:22;15.40;77.40
9820;DHT22;4949;48.482;9.206;2023-05-07T06:41:23;15.30;77.80
9820;DHT22;4949;48.482;9.206;2023-05-07T06:46:24;15.40;77.90
9820;DHT22;4949;48.482;9.206;2023-05-07T06:51:25;15.50;77.90
9820;DHT22;4949;48.482;9.206;2023-05-07T06:56:27;15.50;77.10
9820;DHT22;4949;48.482;9.206;2023-05-07T07:01:28;15.60;77.20
9820;DHT22;4949;48.482;9.206;2023-05-07T07:06:33;15.90;76.10
9820;DHT22;4949;48.482;9.206;2023-05-07T07:11:35;16.30;75.80
9820;DHT22;4949;48.482;9.206;2023-05-07T07:16:36;16.60;73.70
9820;DHT22;4949;48.482;9.206;2023-05-07T07:21:36;16.90;72.60
9820;DHT22;4949;48.482;9.206;2023-05-07T07:26:37;17.10;72.00
9820;DHT22;4949;48.482;9.206;2023-05-07T07:31:45;17.40;71.10
9820;DHT22;4949;48.482;9.206;2023-05-07T07:36:46;17.60;70.30
9820;DHT22;4949;48.482;9.206;2023-05-07T07:41:47;17.80;69.80
9820;DHT22;4949;48.482;9.206;2023-05-07T07:46:50;18.00;69.40
9820;DHT22;4949;48.482;9.206;2023-05-07T07:51:51;18.20;69.10
9820;DHT22;4949;48.482;9.206;2023-05-07T07:56:52;18.30;68.50
9820;DHT22;4949;48.482;9.206;2023-05-07T08:01:53;18.50;68.20
9820;DHT22;4949;48.482;9.206;2023-05-07T08:06:56;18.70;68.00
9820;DHT22;4949;48.482;9.206;2023-05-07T08:11:59;18.80;67.40
9820;DHT22;4949;48.482;9.206;2023-05-07T08:17:00;18.90;67.20
9820;DHT22;4949;48.482;9.206;2023-05-07T08:22:02;19.00;66.90
9820;DHT22;4949;48.482;9.206;2023-05-07T08:27:03;19.10;66.50
9820;DHT22;4949;48.482;9.206;2023-05-07T08:32:06;19.30;66.30
9820;DHT22;4949;48.482;9.206;2023-05-07T08:37:07;19.30;65.90
9820;DHT22;4949;48.482;9.206;2023-05-07T08:42:11;19.40;65.90
9820;DHT22;4949;48.482;9.206;2023-05-07T08:47:13;19.40;65.70
9820;DHT22;4949;48.482;9.206;2023-05-07T08:52:14;19.50;65.70
9820;DHT22;4949;48.482;9.206;2023-05-07T08:57:20;19.50;65.30
9820;DHT22;4949;48.482;9.206;2023-05-07T09:02:22;19.60;65.40
9820;DHT22;4949;48.482;9.206;2023-05-07T09:07:22;19.70;65.30
9820;DHT22;4949;48.482;9.206;2023-05-07T09:12:26;19.80;65.30
9820;DHT22;4949;48.482;9.206;2023-05-07T09:17:28;19.90;65.10
9820;DHT22;4949;48.482;9.206;2023-05-07T09:22:33;20.10;65.30
9820;DHT22;4949;48.482;9.206;2023-05-07T09:27:37;20.20;64.90
9820;DHT22;4949;48.482;9.206;2023-05-07T09:32:37;20.30;64.40
9820;DHT22;4949;48.482;9.206;2023-05-07T09:37:41;20.50;64.40
9820;DHT22;4949;48.482;9.206;2023-05-07T09:42:42;20.70;63.50
9820;DHT22;4949;48.482;9.206;2023-05-07T09:47:43;20.80;64.10
9820;DHT22;4949;48.482;9.206;2023-05-07T09:52:48;21.00;62.70
9820;DHT22;4949;48.482;9.206;2023-05-07T09:57:53;21.10;63.50
9820;DHT22;4949;48.482;9.206;2023-05-07T10:02:56;21.30;61.30
9820;DHT22;4949;48.482;9.206;2023-05-07T10:07:58;21.40;61.50
9820;DHT22;4949;48.482;9.206;2023-05-07T10:13:01;21.60;60.90
9820;DHT22;4949;48.482;9.206;2023-05-07T10:18:06;21.80;60.10
9820;DHT22;4949;48.482;9.206;2023-05-07T10:23:13;22.00;60.60
9820;DHT22;4949;48.482;9.206;2023-05-07T10:28:17;22.20;58.90
9820;DHT22;4949;48.482;9.206;2023-05-07T10:33:20;22.30;57.60
9820;DHT22;4949;48.482;9.206;2023-05-07T10:38:22;22.70;56.90
9820;DHT22;4949;48.482;9.206;2023-05-07T10:43:24;23.00;55.90
9820;DHT22;4949;48.482;9.206;2023-05-07T10:48:26;23.20;54.70
9820;DHT22;4949;48.482;9.206;2023-05-07T10:53:30;23.40;53.50
9820;DHT22;4949;48.482;9.206;2023-05-07T10:58:31;23.50;52.80
9820;DHT22;4949;48.482;9.206;2023-05-07T11:03:33;23.50;52.80
9820;DHT22;4949;48.482;9.206;2023-05-07T11:13:54;23.50;51.60
9820;DHT22;4949;48.482;9.206;2023-05-07T11:18:57;23.40;53.10
9820;DHT22;4949;48.482;9.206;2023-05-07T11:23:58;23.40;57.40
9820;DHT22;4949;48.482;9.206;2023-05-07T11:29:00;23.30;60.00
9820;DHT22;4949;48.482;9.206;2023-05-07T11:34:01;23.20;60.10
9820;DHT22;4949;48.482;9.206;2023-05-07T11:39:02;23.10;63.70
9820;DHT22;4949;48.482;9.206;2023-05-07T11:44:03;22.90;65.70
9820;DHT22;4949;48.482;9.206;2023-05-07T11:49:04;22.70;66.70
9820;DHT22;4949;48.482;9.206;2023-05-07T11:54:09;22.50;68.50
9820;DHT22;4949;48.482;9.206;2023-05-07T11:59:11;22.30;69.60
9820;DHT22;4949;48.482;9.206;2023-05-07T12:04:19;22.10;71.00
9820;DHT22;4949;48.482;9.206;2023-05-07T12:09:21;21.90;72.10
9820;DHT22;4949;48.482;9.206;2023-05-07T12:14:27;22.00;71.20
9820;DHT22;4949;48.482;9.206;2023-05-07T12:19:30;21.80;70.10
9820;DHT22;4949;48.482;9.206;2023-05-07T12:24:46;21.60;70.60
9820;DHT22;4949;48.482;9.206;2023-05-07T12:29:50;21.40;70.20
9820;DHT22;4949;48.482;9.206;2023-05-07T12:34:51;21.30;70.10
9820;DHT22;4949;48.482;9.206;2023-05-07T12:40:13;21.10;71.20
9820;DHT22;4949;48.482;9.206;2023-05-07T12:45:17;21.10;70.80
9820;DHT22;4949;48.482;9.206;2023-05-07T12:50:18;20.90;70.90
9820;DHT22;4949;48.482;9.206;2023-05-07T12:55:21;20.80;72.10
9820;DHT22;4949;48.482;9.206;2023-05-07T13:00:38;20.80;72.40
9820;DHT22;4949;48.482;9.206;2023-05-07T13:05:41;20.70;71.20
9820;DHT22;4949;48.482;9.206;2023-05-07T13:10:42;20.70;70.80
9820;DHT22;4949;48.482;9.206;2023-05-07T13:15:43;20.40;73.00
9820;DHT22;4949;48.482;9.206;2023-05-07T13:20:44;19.90;70.20
9820;DHT22;4949;48.482;9.206;2023-05-07T13:25:48;19.40;72.70
9820;DHT22;4949;48.482;9.206;2023-05-07T13:30:49;19.10;75.90
9820;DHT22;4949;48.482;9.206;2023-05-07T13:35:52;18.80;78.30
9820;DHT22;4949;48.482;9.206;2023-05-07T13:40:53;18.80;80.10
9820;DHT22;4949;48.482;9.206;2023-05-07T13:45:56;18.40;79.60
9820;DHT22;4949;48.482;9.206;2023-05-07T13:50:57;18.30;80.40
9820;DHT22;4949;48.482;9.206;2023-05-07T13:56:00;18.20;80.70
9820;DHT22;4949;48.482;9.206;2023-05-07T14:01:04;18.00;82.00
9820;DHT22;4949;48.482;9.206;2023-05-07T14:06:07;18.00;83.50
9820;DHT22;4949;48.482;9.206;2023-05-07T14:11:08;17.90;83.00
9820;DHT22;4949;48.482;9.206;2023-05-07T14:16:11;17.90;83.10
9820;DHT22;4949;48.482;9.206;2023-05-07T14:21:12;17.90;84.00
9820;DHT22;4949;48.482;9.206;2023-05-07T14:26:13;17.90;84.60
9820;DHT22;4949;48.482;9.206;2023-05-07T14:31:14;17.80;85.40
9820;DHT22;4949;48.482;9.206;2023-05-07T14:36:15;17.80;83.40
9820;DHT22;4949;48.482;9.206;2023-05-07T14:41:16;17.90;81.40
9820;DHT22;4949;48.482;9.206;2023-05-07T14:46:18;17.70;83.40
9820;DHT22;4949;48.482;9.206;2023-05-07T14:51:19;17.80;82.50
9820;DHT22;4949;48.482;9.206;2023-05-07T14:56:21;17.80;83.20
9820;DHT22;4949;48.482;9.206;2023-05-07T15:01:22;17.70;84.30
9820;DHT22;4949;48.482;9.206;2023-05-07T15:06:25;17.80;85.40
9820;DHT22;4949;48.482;9.206;2023-05-07T15:11:27;17.80;85.60
9820;DHT22;4949;48.482;9.206;2023-05-07T15:16:32;17.90;84.00
9820;DHT22;4949;48.482;9.206;2023-05-07T15:21:34;18.00;82.40
9820;DHT22;4949;48.482;9.206;2023-05-07T15:26:44;18.10;83.10
9820;DHT22;4949;48.482;9.206;2023-05-07T15:31:44;18.10;81.10
9820;DHT22;4949;48.482;9.206;2023-05-07T15:36:48;18.20;82.20
9820;DHT22;4949;48.482;9.206;2023-05-07T15:41:51;18.30;82.00
9820;DHT22;4949;48.482;9.206;2023-05-07T15:46:51;18.40;80.50
9820;DHT22;4949;48.482;9.206;2023-05-07T15:51:52;18.40;79.80
9820;DHT22;4949;48.482;9.206;2023-05-07T15:56:54;18.40;80.10
9820;DHT22;4949;48.482;9.206;2023-05-07T16:01:58;18.40;80.90
9820;DHT22;4949;48.482;9.206;2023-05-07T16:06:58;18.40;80.50
9820;DHT22;4949;48.482;9.206;2023-05-07T16:12:02;18.30;80.50
9820;DHT22;4949;48.482;9.206;2023-05-07T16:17:03;18.20;82.00
9820;DHT22;4949;48.482;9.206;2023-05-07T16:22:04;18.20;82.70
9820;DHT22;4949;48.482;9.206;2023-05-07T16:27:05;18.20;83.20
9820;DHT22;4949;48.482;9.206;2023-05-07T16:32:08;18.20;82.90
9820;DHT22;4949;48.482;9.206;2023-05-07T16:37:09;18.10;82.30
9820;DHT22;4949;48.482;9.206;2023-05-07T16:42:10;18.10;82.60
9820;DHT22;4949;48.482;9.206;2023-05-07T16:47:10;18.10;83.30
9820;DHT22;4949;48.482;9.206;2023-05-07T16:52:11;18.00;82.70
9820;DHT22;4949;48.482;9.206;2023-05-07T16:57:14;17.90;82.40
9820;DHT22;4949;48.482;9.206;2023-05-07T17:02:15;17.90;82.70
9820;DHT22;4949;48.482;9.206;2023-05-07T17:07:16;17.90;82.90
9820;DHT22;4949;48.482;9.206;2023-05-07T17:12:17;17.90;83.30
9820;DHT22;4949;48.482;9.206;2023-05-07T17:17:17;17.90;83.40
9820;DHT22;4949;48.482;9.206;2023-05-07T17:22:20;17.80;84.50
9820;DHT22;4949;48.482;9.206;2023-05-07T17:27:24;17.80;84.40
9820;DHT22;4949;48.482;9.206;2023-05-07T17:32:25;17.70;84.30
9820;DHT22;4949;48.482;9.206;2023-05-07T17:37:27;17.80;84.40
9820;DHT22;4949;48.482;9.206;2023-05-07T17:42:28;17.80;84.60
9820;DHT22;4949;48.482;9.206;2023-05-07T17:47:31;17.80;84.60
9820;DHT22;4949;48.482;9.206;2023-05-07T17:52:38;17.70;83.90
9820;DHT22;4949;48.482;9.206;2023-05-07T17:57:42;17.70;84.80
9820;DHT22;4949;48.482;9.206;2023-05-07T18:02:43;17.60;84.40
9820;DHT22;4949;48.482;9.206;2023-05-07T18:07:46;17.60;84.30
9820;DHT22;4949;48.482;9.206;2023-05-07T18:12:49;17.60;84.50
9820;DHT22;4949;48.482;9.206;2023-05-07T18:17:54;17.50;84.30
9820;DHT22;4949;48.482;9.206;2023-05-07T18:23:00;17.60;84.90
9820;DHT22;4949;48.482;9.206;2023-05-07T18:28:03;17.50;85.20
9820;DHT22;4949;48.482;9.206;2023-05-07T18:33:06;17.40;85.60
9820;DHT22;4949;48.482;9.206;2023-05-07T18:38:07;17.40;86.10
9820;DHT22;4949;48.482;9.206;2023-05-07T18:43:10;17.40;86.00
9820;DHT22;4949;48.482;9.206;2023-05-07T18:48:11;17.30;86.10
9820;DHT22;4949;48.482;9.206;2023-05-07T18:53:11;17.20;85.60
9820;DHT22;4949;48.482;9.206;2023-05-07T18:58:12;17.20;86.50
9820;DHT22;4949;48.482;9.206;2023-05-07T19:03:13;17.20;86.70
9820;DHT22;4949;48.482;9.206;2023-05-07T19:08:15;17.10;86.50
9820;DHT22;4949;48.482;9.206;2023-05-07T19:13:18;17.10;86.40
9820;DHT22;4949;48.482;9.206;2023-05-07T19:18:21;17.10;86.70
9820;DHT22;4949;48.482;9.206;2023-05-07T19:23:22;17.00;86.20
9820;DHT22;4949;48.482;9.206;2023-05-07T19:28:23;17.00;87.00
9820;DHT22;4949;48.482;9.206;2023-05-07T19:33:25;17.00;87.30
9820;DHT22;4949;48.482;9.206;2023-05-07T19:38:28;16.90;87.20
9820;DHT22;4949;48.482;9.206;2023-05-07T19:43:30;16.90;87.40
9820;DHT22;4949;48.482;9.206;2023-05-07T19:48:37;16.90;87.50
9820;DHT22;4949;48.482;9.206;2023-05-07T19:53:38;16.90;87.40
9820;DHT22;4949;48.482;9.206;2023-05-07T19:58:39;16.80;87.40
9820;DHT22;4949;48.482;9.206;2023-05-07T20:03:43;16.80;87.40
9820;DHT22;4949;48.482;9.206;2023-05-07T20:08:49;16.70;87.00
9820;DHT22;4949;48.482;9.206;2023-05-07T20:13:50;16.70;88.00
9820;DHT22;4949;48.482;9.206;2023-05-07T20:18:52;16.70;87.80
9820;DHT22;4949;48.482;9.206;2023-05-07T20:23:53;16.70;87.90
9820;DHT22;4949;48.482;9.206;2023-05-07T20:28:54;16.60;88.20
9820;DHT22;4949;48.482;9.206;2023-05-07T20:33:57;16.60;88.20
9820;DHT22;4949;48.482;9.206;2023-05-07T20:38:58;16.60;88.00
9820;DHT22;4949;48.482;9.206;2023-05-07T20:43:59;16.50;88.30
9820;DHT22;4949;48.482;9.206;2023-05-07T20:49:02;16.50;88.20
9820;DHT22;4949;48.482;9.206;2023-05-07T20:54:03;16.50;88.50
9820;DHT22;4949;48.482;9.206;2023-05-07T20:59:03;16.50;88.40
9820;DHT22;4949;48.482;9.206;2023-05-07T21:04:07;16.40;88.50
9820;DHT22;4949;48.482;9.206;2023-05-07T21:09:08;16.40;88.70
9820;DHT22;4949;48.482;9.206;2023-05-07T21:14:08;16.40;89.00
9820;DHT22;4949;48.482;9.206;2023-05-07T21:19:09;16.40;89.10
9820;DHT22;4949;48.482;9.206;2023-05-07T21:24:10;16.40;89.00
9820;DHT22;4949;48.482;9.206;2023-05-07T21:29:13;16.40;89.10
9820;DHT22;4949;48.482;9.206;2023-05-07T21:34:14;16.40;89.40
9820;DHT22;4949;48.482;9.206;2023-05-07T21:39:15;16.30;89.20
9820;DHT22;4949;48.482;9.206;2023-05-07T21:44:21;16.30;89.50
9820;DHT22;4949;48.482;9.206;2023-05-07T21:49:22;16.30;90.00
9820;DHT22;4949;48.482;9.206;2023-05-07T21:54:23;16.30;89.90
9820;DHT22;4949;48.482;9.206;2023-05-07T21:59:24;16.30;90.00
9820;DHT22;4949;48.482;9.206;2023-05-07T22:04:25;16.30;89.30
9820;DHT22;4949;48.482;9.206;2023-05-07T22:09:28;16.30;89.50
9820;DHT22;4949;48.482;9.206;2023-05-07T22:14:31;16.30;89.50
9820;DHT22;4949;48.482;9.206;2023-05-07T22:19:32;16.20;89.30
9820;DHT22;4949;48.482;9.206;2023-05-07T22:24:35;16.20;89.60
9820;DHT22;4949;48.482;9.206;2023-05-07T22:29:36;16.20;89.60
9820;DHT22;4949;48.482;9.206;2023-05-07T22:34:37;16.20;89.70
9820;DHT22;4949;48.482;9.206;2023-05-07T22:39:43;16.10;89.70
9820;DHT22;4949;48.482;9.206;2023-05-07T22:44:43;16.10;89.60
9820;DHT22;4949;48.482;9.206;2023-05-07T22:49:47;16.10;89.70
9820;DHT22;4949;48.482;9.206;2023-05-07T22:54:47;16.10;90.00
9820;DHT22;4949;48.482;9.206;2023-05-07T22:59:53;16.10;90.00
9820;DHT22;4949;48.482;9.206;2023-05-07T23:04:58;16.10;90.10
9820;DHT22;4949;48.482;9.206;2023-05-07T23:10:00;16.10;90.20
9820;DHT22;4949;48.482;9.206;2023-05-07T23:15:03;16.00;90.20
9820;DHT22;4949;48.482;9.206;2023-05-07T23:20:07;16.00;90.10
9820;DHT22;4949;48.482;9.206;2023-05-07T23:25:10;16.10;89.90
9820;DHT22;4949;48.482;9.206;2023-05-07T23:30:14;16.10;90.00
9820;DHT22;4949;48.482;9.206;2023-05-07T23:35:21;16.00;90.10
9820;DHT22;4949;48.482;9.206;2023-05-07T23:40:22;16.00;90.30
9820;DHT22;4949;48.482;9.206;2023-05-07T23:45:25;16.00;90.40
9820;DHT22;4949;48.482;9.206;2023-05-07T23:50:25;16.00;90.50
9820;DHT22;4949;48.482;9.206;2023-05-07T23:55:29;16.00;90.50
